Time,TemperatureF,DewpointF,PressureIn,WindDirection,WindDirectionDegrees,WindSpeedMPH,WindSpeedGustMPH,Humidity,HourlyPrecipIn,Conditions,Clouds,dailyrainin,SoftwareType,DateUTC
2013-11-26 00:00:00,33.1,14.1,30.03,SE,131,0.0,0.0,45,0.00,,---,0.00,VWS V14.01,2013-11-26 08:00:00,
2013-11-26 00:06:00,33.1,14.1,30.03,SE,131,0.0,0.0,45,0.00,,---,0.00,VWS V14.01,2013-11-26 08:06:00,
2013-11-26 00:12:00,33.3,14.7,30.03,SE,131,0.0,0.0,46,0.00,,---,0.00,VWS V14.01,2013-11-26 08:12:00,
2013-11-26 00:18:00,33.1,14.1,30.03,SE,131,0.0,0.0,45,0.00,,---,0.00,VWS V14.01,2013-11-26 08:18:00,
2013-11-26 00:24:00,32.9,13.9,30.03,SE,131,0.0,0.0,45,0.00,,---,0.00,VWS V14.01,2013-11-26 08:24:00,
2013-11-26 00:30:00,32.7,13.7,30.00,SE,131,0.0,0.0,45,0.00,,---,0.00,VWS V14.01,2013-11-26 08:30:00,
2013-11-26 00:36:00,32.7,13.7,30.00,SE,131,0.0,0.0,45,0.00,,---,0.00,VWS V14.01,2013-11-26 08:36:00,
2013-11-26 00:42:00,32.5,13.6,30.00,SE,131,0.0,0.0,45,0.00,,---,0.00,VWS V14.01,2013-11-26 08:42:00,
2013-11-26 00:48:00,32.5,13.6,30.00,SE,131,0.0,0.0,45,0.00,,---,0.00,VWS V14.01,2013-11-26 08:48:00,
2013-11-26 00:54:00,32.5,13.6,30.00,SE,131,0.0,0.0,45,0.00,,---,0.00,VWS V14.01,2013-11-26 08:54:00,
2013-11-26 01:00:00,32.2,13.2,30.00,SE,131,0.0,0.0,45,0.00,,---,0.00,VWS V14.01,2013-11-26 09:00:00,
2013-11-26 01:06:00,32.2,13.2,30.00,SE,131,0.0,0.0,45,0.00,,---,0.00,VWS V14.01,2013-11-26 09:06:00,
2013-11-26 01:12:00,32.4,13.4,30.00,SE,131,0.0,0.0,45,0.00,,---,0.00,VWS V14.01,2013-11-26 09:12:00,
2013-11-26 01:18:00,32.2,13.2,30.00,SE,131,0.0,0.0,45,0.00,,---,0.00,VWS V14.01,2013-11-26 09:18:00,
2013-11-26 01:24:00,32.2,13.2,30.00,SE,131,0.0,0.0,45,0.00,,---,0.00,VWS V14.01,2013-11-26 09:24:00,
2013-11-26 01:30:00,32.0,13.1,30.00,SE,131,0.0,0.0,45,0.00,,---,0.00,VWS V14.01,2013-11-26 09:30:00,
2013-11-26 01:36:00,32.2,13.2,30.00,SE,131,0.0,0.0,45,0.00,,---,0.00,VWS V14.01,2013-11-26 09:36:00,
2013-11-26 01:42:00,32.0,13.1,30.00,SE,131,0.0,0.0,45,0.00,,---,0.00,VWS V14.01,2013-11-26 09:42:00,
2013-11-26 01:48:00,32.0,13.6,30.00,SE,131,0.0,0.0,46,0.00,,---,0.00,VWS V14.01,2013-11-26 09:48:00,
2013-11-26 01:54:00,31.8,12.9,30.00,SE,131,0.0,0.0,45,0.00,,---,0.00,VWS V14.01,2013-11-26 09:54:00,
2013-11-26 02:00:00,31.8,12.9,30.00,SE,131,0.0,0.0,45,0.00,,---,0.00,VWS V14.01,2013-11-26 10:00:00,
2013-11-26 02:06:00,31.8,13.4,30.00,SE,131,0.0,0.0,46,0.00,,---,0.00,VWS V14.01,2013-11-26 10:06:00,
2013-11-26 02:12:00,31.8,13.4,30.00,SE,131,0.0,0.0,46,0.00,,---,0.00,VWS V14.01,2013-11-26 10:12:00,
2013-11-26 02:18:00,31.8,13.4,30.00,SE,131,0.0,0.0,46,0.00,,---,0.00,VWS V14.01,2013-11-26 10:18:00,
2013-11-26 02:24:00,31.5,12.6,30.00,SE,131,0.0,0.0,45,0.00,,---,0.00,VWS V14.01,2013-11-26 10:24:00,
2013-11-26 02:30:00,31.3,12.4,30.00,SE,131,0.0,0.0,45,0.00,,---,0.00,VWS V14.01,2013-11-26 10:30:00,
2013-11-26 02:36:00,31.3,12.4,30.00,SE,131,0.0,0.0,45,0.00,,---,0.00,VWS V14.01,2013-11-26 10:36:00,
2013-11-26 02:42:00,31.1,12.2,30.00,SE,131,0.0,0.0,45,0.00,,---,0.00,VWS V14.01,2013-11-26 10:42:00,
2013-11-26 02:48:00,31.3,12.9,30.00,SE,131,0.0,0.0,46,0.00,,---,0.00,VWS V14.01,2013-11-26 10:48:00,
2013-11-26 02:54:00,31.5,13.1,30.00,SE,131,0.0,0.0,46,0.00,,---,0.00,VWS V14.01,2013-11-26 10:54:00,
2013-11-26 03:00:00,31.3,12.4,30.00,SE,131,0.0,0.0,45,0.00,,---,0.00,VWS V14.01,2013-11-26 11:00:00,
2013-11-26 03:06:00,31.3,12.9,30.00,SE,131,0.0,0.0,46,0.00,,---,0.00,VWS V14.01,2013-11-26 11:06:00,
2013-11-26 03:12:00,31.1,12.8,30.00,SE,131,0.0,0.0,46,0.00,,---,0.00,VWS V14.01,2013-11-26 11:12:00,
2013-11-26 03:18:00,31.1,12.8,30.00,SE,131,0.0,0.0,46,0.00,,---,0.00,VWS V14.01,2013-11-26 11:18:00,
2013-11-26 03:24:00,31.1,12.8,30.00,SE,131,0.0,0.0,46,0.00,,---,0.00,VWS V14.01,2013-11-26 11:24:00,
2013-11-26 03:30:00,31.1,12.8,29.97,SE,131,0.0,0.0,46,0.00,,---,0.00,VWS V14.01,2013-11-26 11:30:00,
2013-11-26 03:36:00,31.1,12.8,29.97,SE,131,0.0,0.0,46,0.00,,---,0.00,VWS V14.01,2013-11-26 11:36:00,
2013-11-26 03:42:00,30.9,12.6,30.00,SE,131,0.0,0.0,46,0.00,,---,0.00,VWS V14.01,2013-11-26 11:42:00,
2013-11-26 03:48:00,30.9,12.6,30.00,SE,131,0.0,0.0,46,0.00,,---,0.00,VWS V14.01,2013-11-26 11:48:00,
2013-11-26 03:54:00,30.9,12.6,30.00,SE,131,0.0,0.0,46,0.00,,---,0.00,VWS V14.01,2013-11-26 11:54:00,
2013-11-26 04:00:00,30.9,12.6,29.97,SE,131,0.0,0.0,46,0.00,,---,0.00,VWS V14.01,2013-11-26 12:00:00,
2013-11-26 04:06:00,30.7,12.4,29.97,SE,131,0.0,0.0,46,0.00,,---,0.00,VWS V14.01,2013-11-26 12:06:00,
2013-11-26 04:12:00,30.6,12.3,29.97,SE,131,0.0,0.0,46,0.00,,---,0.00,VWS V14.01,2013-11-26 12:12:00,
2013-11-26 04:18:00,30.6,12.3,29.97,SE,131,0.0,0.0,46,0.00,,---,0.00,VWS V14.01,2013-11-26 12:18:00,
2013-11-26 04:24:00,30.7,12.4,29.97,SE,131,0.0,0.0,46,0.00,,---,0.00,VWS V14.01,2013-11-26 12:24:00,
2013-11-26 04:30:00,30.7,12.4,29.97,SE,131,0.0,0.0,46,0.00,,---,0.00,VWS V14.01,2013-11-26 12:30:00,
2013-11-26 04:36:00,30.6,12.3,29.97,SE,131,0.0,0.0,46,0.00,,---,0.00,VWS V14.01,2013-11-26 12:36:00,
2013-11-26 04:42:00,30.6,12.3,29.97,SE,131,0.0,0.0,46,0.00,,---,0.00,VWS V14.01,2013-11-26 12:42:00,
2013-11-26 04:48:00,30.4,11.6,29.97,SE,131,0.0,0.0,45,0.00,,---,0.00,VWS V14.01,2013-11-26 12:48:00,
2013-11-26 04:54:00,30.4,12.1,29.97,SE,131,0.0,0.0,46,0.00,,---,0.00,VWS V14.01,2013-11-26 12:54:00,
2013-11-26 05:00:00,30.6,12.3,29.97,SE,131,0.0,0.0,46,0.00,,---,0.00,VWS V14.01,2013-11-26 13:00:00,
2013-11-26 05:06:00,30.6,12.3,29.97,SE,131,0.0,0.0,46,0.00,,---,0.00,VWS V14.01,2013-11-26 13:06:00,
2013-11-26 05:12:00,30.4,11.6,29.97,SE,131,0.0,0.0,45,0.00,,---,0.00,VWS V14.01,2013-11-26 13:12:00,
2013-11-26 05:18:00,30.4,11.6,29.97,SE,131,0.0,0.0,45,0.00,,---,0.00,VWS V14.01,2013-11-26 13:18:00,
2013-11-26 05:24:00,30.4,12.1,29.97,SE,131,0.0,0.0,46,0.00,,---,0.00,VWS V14.01,2013-11-26 13:24:00,
2013-11-26 05:30:00,30.6,12.3,29.97,SE,131,0.0,0.0,46,0.00,,---,0.00,VWS V14.01,2013-11-26 13:30:00,
2013-11-26 05:36:00,30.6,11.8,29.97,SE,131,0.0,0.0,45,0.00,,---,0.00,VWS V14.01,2013-11-26 13:36:00,
2013-11-26 05:42:00,30.4,11.6,29.97,SE,131,0.0,0.0,45,0.00,,---,0.00,VWS V14.01,2013-11-26 13:42:00,
2013-11-26 05:48:00,30.2,11.4,29.97,SE,131,0.0,0.0,45,0.00,,---,0.00,VWS V14.01,2013-11-26 13:48:00,
2013-11-26 05:54:00,30.2,11.9,29.97,SE,131,0.0,0.0,46,0.00,,---,0.00,VWS V14.01,2013-11-26 13:54:00,
2013-11-26 06:00:00,30.0,11.8,29.97,SE,131,0.0,0.0,46,0.00,,---,0.00,VWS V14.01,2013-11-26 14:00:00,
2013-11-26 06:06:00,30.0,11.3,29.97,SE,131,0.0,0.0,45,0.00,,---,0.00,VWS V14.01,2013-11-26 14:06:00,
2013-11-26 06:12:00,30.0,11.3,29.94,SE,131,0.0,0.0,45,0.00,,---,0.00,VWS V14.01,2013-11-26 14:12:00,
2013-11-26 06:18:00,29.8,11.1,29.94,SE,131,0.0,0.0,45,0.00,,---,0.00,VWS V14.01,2013-11-26 14:18:00,
2013-11-26 06:24:00,29.7,10.9,29.94,SE,131,0.0,0.0,45,0.00,,---,0.00,VWS V14.01,2013-11-26 14:24:00,
2013-11-26 06:30:00,29.8,11.1,29.97,SE,131,0.0,0.0,45,0.00,,---,0.00,VWS V14.01,2013-11-26 14:30:00,
2013-11-26 06:36:00,29.8,11.1,29.97,SE,131,0.0,0.0,45,0.00,,---,0.00,VWS V14.01,2013-11-26 14:36:00,
2013-11-26 06:42:00,29.7,10.9,29.97,SE,131,0.0,0.0,45,0.00,,---,0.00,VWS V14.01,2013-11-26 14:42:00,
2013-11-26 06:48:00,29.5,10.8,29.97,SE,131,0.0,0.0,45,0.00,,---,0.00,VWS V14.01,2013-11-26 14:48:00,
2013-11-26 06:54:00,29.5,10.8,29.97,SE,131,0.0,0.0,45,0.00,,---,0.00,VWS V14.01,2013-11-26 14:54:00,
2013-11-26 07:00:00,29.5,10.8,29.97,SE,131,0.0,0.0,45,0.00,,---,0.00,VWS V14.01,2013-11-26 15:00:00,
2013-11-26 07:06:00,29.5,10.8,29.97,SE,131,0.0,0.0,45,0.00,,---,0.00,VWS V14.01,2013-11-26 15:06:00,
2013-11-26 07:12:00,29.5,10.8,29.97,SE,131,0.0,0.0,45,0.00,,---,0.00,VWS V14.01,2013-11-26 15:12:00,
2013-11-26 07:18:00,29.3,10.6,29.97,SE,131,0.0,0.0,45,0.00,,---,0.00,VWS V14.01,2013-11-26 15:18:00,
2013-11-26 07:24:00,29.3,10.6,29.97,SE,131,0.0,0.0,45,0.00,,---,0.00,VWS V14.01,2013-11-26 15:24:00,
2013-11-26 07:30:00,29.3,10.6,29.97,SE,131,0.0,0.0,45,0.00,,---,0.00,VWS V14.01,2013-11-26 15:30:00,
2013-11-26 07:36:00,29.1,10.4,29.97,SE,131,0.0,0.0,45,0.00,,---,0.00,VWS V14.01,2013-11-26 15:36:00,
2013-11-26 07:42:00,29.1,9.9,29.97,SE,131,0.0,0.0,44,0.00,,---,0.00,VWS V14.01,2013-11-26 15:42:00,
2013-11-26 07:48:00,29.3,10.6,29.97,SE,131,0.0,0.0,45,0.00,,---,0.00,VWS V14.01,2013-11-26 15:48:00,
2013-11-26 07:54:00,29.5,10.8,29.97,SE,131,0.0,0.0,45,0.00,,---,0.00,VWS V14.01,2013-11-26 15:54:00,
2013-11-26 08:00:00,29.7,10.9,29.97,SE,131,0.0,0.0,45,0.00,,---,0.00,VWS V14.01,2013-11-26 16:00:00,
2013-11-26 08:06:00,29.7,10.9,29.97,SE,131,0.0,0.0,45,0.00,,---,0.00,VWS V14.01,2013-11-26 16:06:00,
2013-11-26 08:12:00,29.8,11.1,29.97,SE,131,0.0,0.0,45,0.00,,---,0.00,VWS V14.01,2013-11-26 16:12:00,
2013-11-26 08:18:00,30.0,11.3,29.97,SE,130,0.0,0.0,45,0.00,,---,0.00,VWS V14.01,2013-11-26 16:18:00,
2013-11-26 08:24:00,30.2,11.4,29.97,SE,131,0.0,0.0,45,0.00,,---,0.00,VWS V14.01,2013-11-26 16:24:00,
2013-11-26 08:30:00,30.2,11.4,29.94,SE,131,0.0,0.0,45,0.00,,---,0.00,VWS V14.01,2013-11-26 16:30:00,
2013-11-26 08:36:00,30.2,11.4,29.94,SE,131,0.0,0.0,45,0.00,,---,0.00,VWS V14.01,2013-11-26 16:36:00,
2013-11-26 08:42:00,30.4,11.6,29.97,SE,131,0.0,0.0,45,0.00,,---,0.00,VWS V14.01,2013-11-26 16:42:00,
2013-11-26 08:48:00,30.6,11.8,29.97,SE,131,0.0,0.0,45,0.00,,---,0.00,VWS V14.01,2013-11-26 16:48:00,
2013-11-26 08:54:00,30.7,11.9,29.97,SE,131,0.0,0.0,45,0.00,,---,0.00,VWS V14.01,2013-11-26 16:54:00,
2013-11-26 09:00:00,30.9,12.1,29.97,SE,131,0.0,0.0,45,0.00,,---,0.00,VWS V14.01,2013-11-26 17:00:00,
2013-11-26 09:06:00,31.1,12.2,29.97,SE,131,0.0,0.0,45,0.00,,---,0.00,VWS V14.01,2013-11-26 17:06:00,
2013-11-26 09:12:00,31.5,12.6,29.97,SE,131,0.0,0.0,45,0.00,,---,0.00,VWS V14.01,2013-11-26 17:12:00,
2013-11-26 09:18:00,31.8,12.9,29.97,SE,131,0.0,0.0,45,0.00,,---,0.00,VWS V14.01,2013-11-26 17:18:00,
2013-11-26 09:24:00,32.2,13.2,29.97,SE,131,0.0,0.0,45,0.00,,---,0.00,VWS V14.01,2013-11-26 17:24:00,
2013-11-26 09:30:00,32.5,14.1,29.97,SE,131,0.0,0.0,46,0.00,,---,0.00,VWS V14.01,2013-11-26 17:30:00,
2013-11-26 09:36:00,32.7,14.2,29.97,SE,131,0.0,0.0,46,0.00,,---,0.00,VWS V14.01,2013-11-26 17:36:00,
2013-11-26 09:42:00,32.9,14.4,29.97,SE,131,0.0,0.0,46,0.00,,---,0.00,VWS V14.01,2013-11-26 17:42:00,
2013-11-26 09:48:00,33.1,14.6,29.97,SE,131,0.0,0.0,46,0.00,,---,0.00,VWS V14.01,2013-11-26 17:48:00,
2013-11-26 09:54:00,33.3,14.7,29.97,SE,131,0.0,0.0,46,0.00,,---,0.00,VWS V14.01,2013-11-26 17:54:00,
2013-11-26 10:00:00,33.4,14.9,29.97,SE,131,0.0,0.0,46,0.00,,---,0.00,VWS V14.01,2013-11-26 18:00:00,
2013-11-26 10:06:00,33.4,14.9,29.97,SE,131,0.0,0.0,46,0.00,,---,0.00,VWS V14.01,2013-11-26 18:06:00,
2013-11-26 10:12:00,33.6,15.1,29.97,SE,131,0.0,0.0,46,0.00,,---,0.00,VWS V14.01,2013-11-26 18:12:00,
2013-11-26 10:18:00,33.8,15.2,29.97,SE,131,0.0,0.0,46,0.00,,---,0.00,VWS V14.01,2013-11-26 18:18:00,
2013-11-26 10:24:00,33.8,15.2,29.97,SE,131,0.0,0.0,46,0.00,,---,0.00,VWS V14.01,2013-11-26 18:24:00,
2013-11-26 10:30:00,33.8,15.2,29.94,SE,131,0.0,0.0,46,0.00,,---,0.00,VWS V14.01,2013-11-26 18:30:00,
2013-11-26 10:36:00,34.0,15.4,29.94,SE,131,0.0,0.0,46,0.00,,---,0.00,VWS V14.01,2013-11-26 18:36:00,
2013-11-26 10:42:00,34.0,15.4,29.94,SE,131,0.0,0.0,46,0.00,,---,0.00,VWS V14.01,2013-11-26 18:42:00,
2013-11-26 10:48:00,34.3,16.2,29.94,SE,131,0.0,0.0,47,0.00,,---,0.00,VWS V14.01,2013-11-26 18:48:00,
2013-11-26 10:54:00,34.9,16.7,29.94,SE,131,0.0,0.0,47,0.00,,---,0.00,VWS V14.01,2013-11-26 18:54:00,
2013-11-26 11:00:00,35.2,17.5,29.94,SE,131,0.0,0.0,48,0.00,,---,0.00,VWS V14.01,2013-11-26 19:00:00,
2013-11-26 11:06:00,35.4,17.2,29.94,SE,131,0.0,0.0,47,0.00,,---,0.00,VWS V14.01,2013-11-26 19:06:00,
2013-11-26 11:12:00,35.6,17.4,29.91,SE,131,0.0,0.0,47,0.00,,---,0.00,VWS V14.01,2013-11-26 19:12:00,
2013-11-26 11:18:00,36.0,18.2,29.91,SE,131,0.0,0.0,48,0.00,,---,0.00,VWS V14.01,2013-11-26 19:18:00,
2013-11-26 11:24:00,36.3,18.5,29.91,SE,131,0.0,0.0,48,0.00,,---,0.00,VWS V14.01,2013-11-26 19:24:00,
2013-11-26 11:30:00,36.7,18.9,29.91,SE,131,0.0,0.0,48,0.00,,---,0.00,VWS V14.01,2013-11-26 19:30:00,
2013-11-26 11:36:00,36.9,19.0,29.91,SE,131,0.0,0.0,48,0.00,,---,0.00,VWS V14.01,2013-11-26 19:36:00,
2013-11-26 11:42:00,37.0,18.7,29.91,SE,131,0.0,0.0,47,0.00,,---,0.00,VWS V14.01,2013-11-26 19:42:00,
2013-11-26 11:48:00,37.4,19.0,29.91,SE,131,0.0,0.0,47,0.00,,---,0.00,VWS V14.01,2013-11-26 19:48:00,
2013-11-26 11:54:00,37.8,19.4,29.91,SE,131,0.0,0.0,47,0.00,,---,0.00,VWS V14.01,2013-11-26 19:54:00,
2013-11-26 12:00:00,38.1,20.2,29.91,SE,131,0.0,0.0,48,0.00,,---,0.00,VWS V14.01,2013-11-26 20:00:00,
2013-11-26 12:06:00,38.5,20.0,29.91,SE,131,0.0,0.0,47,0.00,,---,0.00,VWS V14.01,2013-11-26 20:06:00,
2013-11-26 12:12:00,38.7,19.7,29.91,SE,131,0.0,0.0,46,0.00,,---,0.00,VWS V14.01,2013-11-26 20:12:00,
2013-11-26 12:18:00,38.8,18.8,29.91,SE,131,0.0,0.0,44,0.00,,---,0.00,VWS V14.01,2013-11-26 20:18:00,
2013-11-26 12:24:00,39.2,18.6,29.91,SE,131,0.0,0.0,43,0.00,,---,0.00,VWS V14.01,2013-11-26 20:24:00,
2013-11-26 12:30:00,39.4,17.7,29.91,SE,131,0.0,0.0,41,0.00,,---,0.00,VWS V14.01,2013-11-26 20:30:00,
2013-11-26 12:36:00,39.7,18.0,29.91,SE,131,0.0,0.0,41,0.00,,---,0.00,VWS V14.01,2013-11-26 20:36:00,
2013-11-26 12:42:00,39.9,17.0,29.91,SE,131,0.0,0.0,39,0.00,,---,0.00,VWS V14.01,2013-11-26 20:42:00,
2013-11-26 12:48:00,40.5,16.9,29.91,SE,131,0.0,0.0,38,0.00,,---,0.00,VWS V14.01,2013-11-26 20:48:00,
2013-11-26 12:54:00,41.0,16.1,29.91,SE,131,0.0,0.0,36,0.00,,---,0.00,VWS V14.01,2013-11-26 20:54:00,
2013-11-26 13:00:00,41.4,15.1,29.91,SE,131,0.0,0.0,34,0.00,,---,0.00,VWS V14.01,2013-11-26 21:00:00,
2013-11-26 13:06:00,41.7,14.8,29.91,SE,131,0.0,0.0,33,0.00,,---,0.00,VWS V14.01,2013-11-26 21:06:00,
2013-11-26 13:12:00,41.9,14.9,29.88,SE,131,0.0,0.0,33,0.00,,---,0.00,VWS V14.01,2013-11-26 21:12:00,
2013-11-26 13:18:00,42.1,15.1,29.88,SE,131,0.0,0.0,33,0.00,,---,0.00,VWS V14.01,2013-11-26 21:18:00,
2013-11-26 13:24:00,42.3,15.2,29.88,SE,131,0.0,0.0,33,0.00,,---,0.00,VWS V14.01,2013-11-26 21:24:00,
2013-11-26 13:30:00,42.4,15.4,29.88,SE,131,0.0,0.0,33,0.00,,---,0.00,VWS V14.01,2013-11-26 21:30:00,
2013-11-26 13:36:00,42.8,15.0,29.88,SE,131,0.0,0.0,32,0.00,,---,0.00,VWS V14.01,2013-11-26 21:36:00,
2013-11-26 13:42:00,43.0,15.9,29.88,SE,131,0.0,0.0,33,0.00,,---,0.00,VWS V14.01,2013-11-26 21:42:00,
2013-11-26 13:48:00,43.3,15.5,29.88,SE,131,0.0,0.0,32,0.00,,---,0.00,VWS V14.01,2013-11-26 21:48:00,
2013-11-26 13:54:00,43.7,15.8,29.88,SE,131,0.0,0.0,32,0.00,,---,0.00,VWS V14.01,2013-11-26 21:54:00,
2013-11-26 14:00:00,43.9,16.7,29.88,SE,131,0.0,0.0,33,0.00,,---,0.00,VWS V14.01,2013-11-26 22:00:00,
2013-11-26 14:06:00,43.9,16.7,29.88,SE,131,0.0,0.0,33,0.00,,---,0.00,VWS V14.01,2013-11-26 22:06:00,
2013-11-26 14:12:00,44.1,16.1,29.88,SE,131,0.0,0.0,32,0.00,,---,0.00,VWS V14.01,2013-11-26 22:12:00,
2013-11-26 14:18:00,44.1,16.1,29.88,SE,131,0.0,0.0,32,0.00,,---,0.00,VWS V14.01,2013-11-26 22:18:00,
2013-11-26 14:24:00,44.1,16.8,29.88,SE,131,0.0,0.0,33,0.00,,---,0.00,VWS V14.01,2013-11-26 22:24:00,
2013-11-26 14:30:00,44.1,16.1,29.85,SE,131,0.0,0.0,32,0.00,,---,0.00,VWS V14.01,2013-11-26 22:30:00,
2013-11-26 14:36:00,44.1,16.8,29.85,SE,131,0.0,0.0,33,0.00,,---,0.00,VWS V14.01,2013-11-26 22:36:00,
2013-11-26 14:42:00,43.7,16.5,29.85,SE,131,0.0,0.0,33,0.00,,---,0.00,VWS V14.01,2013-11-26 22:42:00,
2013-11-26 14:48:00,43.9,18.0,29.85,SE,131,0.0,0.0,35,0.00,,---,0.00,VWS V14.01,2013-11-26 22:48:00,
2013-11-26 14:54:00,43.9,18.0,29.85,SE,131,0.0,0.0,35,0.00,,---,0.00,VWS V14.01,2013-11-26 22:54:00,
2013-11-26 15:00:00,44.1,16.8,29.85,SE,131,0.0,0.0,33,0.00,,---,0.00,VWS V14.01,2013-11-26 23:00:00,
2013-11-26 15:06:00,44.1,16.8,29.85,SE,131,0.0,0.0,33,0.00,,---,0.00,VWS V14.01,2013-11-26 23:06:00,
2013-11-26 15:12:00,43.7,17.9,29.85,SE,131,0.0,0.0,35,0.00,,---,0.00,VWS V14.01,2013-11-26 23:12:00,
2013-11-26 15:18:00,43.3,19.5,29.85,SE,131,0.0,0.0,38,0.00,,---,0.00,VWS V14.01,2013-11-26 23:18:00,
2013-11-26 15:24:00,43.3,20.1,29.85,SE,131,0.0,0.0,39,0.00,,---,0.00,VWS V14.01,2013-11-26 23:24:00,
2013-11-26 15:30:00,43.2,19.9,29.85,SE,131,0.0,0.0,39,0.00,,---,0.00,VWS V14.01,2013-11-26 23:30:00,
2013-11-26 15:36:00,42.8,19.6,29.85,SE,131,0.0,0.0,39,0.00,,---,0.00,VWS V14.01,2013-11-26 23:36:00,
2013-11-26 15:42:00,42.4,19.8,29.88,SE,131,0.0,0.0,40,0.00,,---,0.00,VWS V14.01,2013-11-26 23:42:00,
2013-11-26 15:48:00,42.4,21.0,29.88,SE,131,0.0,0.0,42,0.00,,---,0.00,VWS V14.01,2013-11-26 23:48:00,
2013-11-26 15:54:00,42.4,21.0,29.88,SE,131,0.0,0.0,42,0.00,,---,0.00,VWS V14.01,2013-11-26 23:54:00,
2013-11-26 16:00:00,42.8,23.0,29.85,SE,131,0.0,0.0,45,0.00,,---,0.00,VWS V14.01,2013-11-27 00:00:00,
2013-11-26 16:06:00,42.4,21.5,29.85,SE,131,0.0,0.0,43,0.00,,---,0.00,VWS V14.01,2013-11-27 00:06:00,
2013-11-26 16:12:00,42.4,22.6,29.88,SE,131,0.0,0.0,45,0.00,,---,0.00,VWS V14.01,2013-11-27 00:12:00,
2013-11-26 16:18:00,42.3,22.5,29.88,SE,131,0.0,0.0,45,0.00,,---,0.00,VWS V14.01,2013-11-27 00:18:00,
2013-11-26 16:24:00,42.1,22.3,29.88,SE,131,0.0,0.0,45,0.00,,---,0.00,VWS V14.01,2013-11-27 00:24:00,
2013-11-26 16:30:00,41.9,22.1,29.88,SE,131,0.0,0.0,45,0.00,,---,0.00,VWS V14.01,2013-11-27 00:30:00,
2013-11-26 16:36:00,41.9,22.6,29.88,SE,131,0.0,0.0,46,0.00,,---,0.00,VWS V14.01,2013-11-27 00:36:00,
2013-11-26 16:42:00,41.7,22.5,29.88,SE,131,0.0,0.0,46,0.00,,---,0.00,VWS V14.01,2013-11-27 00:42:00,
2013-11-26 16:48:00,41.9,23.2,29.88,SE,131,0.0,0.0,47,0.00,,---,0.00,VWS V14.01,2013-11-27 00:48:00,
2013-11-26 16:54:00,41.9,23.2,29.88,SE,131,0.0,0.0,47,0.00,,---,0.00,VWS V14.01,2013-11-27 00:54:00,
2013-11-26 17:00:00,41.9,23.2,29.88,SE,131,0.0,0.0,47,0.00,,---,0.00,VWS V14.01,2013-11-27 01:00:00,
2013-11-26 17:06:00,41.9,23.2,29.88,ESE,116,0.0,0.0,47,0.00,,---,0.00,VWS V14.01,2013-11-27 01:06:00,
2013-11-26 17:12:00,41.9,23.7,29.88,ESE,116,0.0,0.0,48,0.00,,---,0.00,VWS V14.01,2013-11-27 01:12:00,
2013-11-26 17:18:00,41.9,24.1,29.88,ESE,116,0.0,0.0,49,0.00,,---,0.00,VWS V14.01,2013-11-27 01:18:00,
2013-11-26 17:24:00,42.1,24.3,29.88,ESE,116,0.0,0.0,49,0.00,,---,0.00,VWS V14.01,2013-11-27 01:24:00,
2013-11-26 17:30:00,42.3,25.0,29.88,ESE,116,0.0,0.0,50,0.00,,---,0.00,VWS V14.01,2013-11-27 01:30:00,
2013-11-26 17:36:00,42.3,24.5,29.88,ESE,116,0.0,0.0,49,0.00,,---,0.00,VWS V14.01,2013-11-27 01:36:00,
2013-11-26 17:42:00,42.3,24.5,29.88,ESE,116,0.0,0.0,49,0.00,,---,0.00,VWS V14.01,2013-11-27 01:42:00,
2013-11-26 17:48:00,42.3,24.0,29.88,ESE,116,0.0,0.0,48,0.00,,---,0.00,VWS V14.01,2013-11-27 01:48:00,
2013-11-26 17:54:00,42.3,24.0,29.88,ESE,116,0.0,0.0,48,0.00,,---,0.00,VWS V14.01,2013-11-27 01:54:00,
2013-11-26 18:00:00,42.1,23.8,29.88,ESE,116,0.0,0.0,48,0.00,,---,0.00,VWS V14.01,2013-11-27 02:00:00,
2013-11-26 18:06:00,42.3,24.5,29.88,ESE,116,0.0,0.0,49,0.00,,---,0.00,VWS V14.01,2013-11-27 02:06:00,
2013-11-26 18:12:00,42.3,24.5,29.88,ESE,116,0.0,0.0,49,0.00,,---,0.00,VWS V14.01,2013-11-27 02:12:00,
2013-11-26 18:18:00,42.3,24.5,29.88,ESE,116,0.0,0.0,49,0.00,,---,0.00,VWS V14.01,2013-11-27 02:18:00,
2013-11-26 18:24:00,42.3,24.5,29.88,ESE,116,0.0,0.0,49,0.00,,---,0.00,VWS V14.01,2013-11-27 02:24:00,
2013-11-26 18:30:00,42.3,24.5,29.88,ESE,116,0.0,0.0,49,0.00,,---,0.00,VWS V14.01,2013-11-27 02:30:00,
2013-11-26 18:36:00,42.3,24.5,29.88,ESE,116,0.0,0.0,49,0.00,,---,0.00,VWS V14.01,2013-11-27 02:36:00,
2013-11-26 18:42:00,42.3,24.5,29.88,ESE,116,0.0,0.0,49,0.00,,---,0.00,VWS V14.01,2013-11-27 02:42:00,
2013-11-26 18:48:00,42.3,24.5,29.88,ESE,116,0.0,0.0,49,0.00,,---,0.00,VWS V14.01,2013-11-27 02:48:00,
2013-11-26 18:54:00,42.4,24.6,29.88,ESE,116,0.0,0.0,49,0.00,,---,0.00,VWS V14.01,2013-11-27 02:54:00,
2013-11-26 19:00:00,42.3,24.5,29.88,ESE,116,0.0,0.0,49,0.00,,---,0.00,VWS V14.01,2013-11-27 03:00:00,
2013-11-26 19:06:00,42.3,24.5,29.88,ESE,116,0.0,0.0,49,0.00,,---,0.00,VWS V14.01,2013-11-27 03:06:00,
2013-11-26 19:12:00,42.3,24.5,29.88,ESE,116,0.0,0.0,49,0.00,,---,0.00,VWS V14.01,2013-11-27 03:12:00,
2013-11-26 19:18:00,42.4,25.1,29.88,ESE,116,0.0,0.0,50,0.00,,---,0.00,VWS V14.01,2013-11-27 03:18:00,
2013-11-26 19:24:00,42.6,25.3,29.88,ESE,116,0.0,0.0,50,0.00,,---,0.00,VWS V14.01,2013-11-27 03:24:00,
2013-11-26 19:30:00,42.4,24.6,29.88,ESE,116,0.0,0.0,49,0.00,,---,0.00,VWS V14.01,2013-11-27 03:30:00,
2013-11-26 19:36:00,42.4,24.6,29.88,ESE,116,0.0,0.0,49,0.00,,---,0.00,VWS V14.01,2013-11-27 03:36:00,
2013-11-26 19:42:00,42.4,24.6,29.88,ESE,116,0.0,0.0,49,0.00,,---,0.00,VWS V14.01,2013-11-27 03:42:00,
2013-11-26 19:48:00,42.4,24.6,29.88,ESE,116,0.0,0.0,49,0.00,,---,0.00,VWS V14.01,2013-11-27 03:48:00,
2013-11-26 19:54:00,42.6,26.2,29.88,ESE,116,0.0,0.0,52,0.00,,---,0.00,VWS V14.01,2013-11-27 03:54:00,
2013-11-26 20:00:00,42.8,25.9,29.88,ESE,116,0.0,0.0,51,0.00,,---,0.00,VWS V14.01,2013-11-27 04:00:00,
2013-11-26 20:06:00,42.8,25.5,29.88,ESE,116,0.0,0.0,50,0.00,,---,0.00,VWS V14.01,2013-11-27 04:06:00,
2013-11-26 20:12:00,42.6,25.3,29.88,ESE,116,0.0,0.0,50,0.00,,---,0.00,VWS V14.01,2013-11-27 04:12:00,
2013-11-26 20:18:00,42.4,25.1,29.88,ESE,116,0.0,0.0,50,0.00,,---,0.00,VWS V14.01,2013-11-27 04:18:00,
2013-11-26 20:24:00,42.4,25.6,29.88,ESE,116,0.0,0.0,51,0.00,,---,0.00,VWS V14.01,2013-11-27 04:24:00,
2013-11-26 20:30:00,42.4,25.6,29.88,ESE,116,0.0,0.0,51,0.00,,---,0.00,VWS V14.01,2013-11-27 04:30:00,
2013-11-26 20:36:00,42.4,25.6,29.88,ESE,116,0.0,0.0,51,0.00,,---,0.00,VWS V14.01,2013-11-27 04:36:00,
2013-11-26 20:42:00,42.4,25.6,29.88,ESE,116,0.0,0.0,51,0.00,,---,0.00,VWS V14.01,2013-11-27 04:42:00,
2013-11-26 20:48:00,42.4,25.6,29.88,ESE,116,0.0,0.0,51,0.00,,---,0.00,VWS V14.01,2013-11-27 04:48:00,
2013-11-26 20:54:00,42.3,25.4,29.88,ESE,116,0.0,0.0,51,0.00,,---,0.00,VWS V14.01,2013-11-27 04:54:00,
2013-11-26 21:00:00,42.3,25.4,29.88,ESE,116,0.0,0.0,51,0.00,,---,0.00,VWS V14.01,2013-11-27 05:00:00,
2013-11-26 21:02:00,42.3,25.4,29.88,ESE,116,0.0,0.0,51,0.00,,---,0.00,VWS V14.01,2013-11-27 05:02:00,
2013-11-26 21:04:00,42.4,25.6,29.88,ESE,116,0.0,0.0,51,0.00,,---,0.00,VWS V14.01,2013-11-27 05:04:00,
2013-11-26 21:08:00,42.4,25.6,29.88,ESE,116,0.0,0.0,51,0.00,,---,0.00,VWS V14.01,2013-11-27 05:08:00,
2013-11-26 21:14:00,42.4,25.6,29.88,ESE,116,0.0,0.0,51,0.00,,---,0.00,VWS V14.01,2013-11-27 05:14:00,
2013-11-26 21:16:00,42.4,26.1,29.88,ESE,116,0.0,0.0,52,0.00,,---,0.00,VWS V14.01,2013-11-27 05:16:00,
2013-11-26 21:21:00,42.4,26.5,29.88,ESE,116,0.0,0.0,53,0.00,,---,0.00,VWS V14.01,2013-11-27 05:21:00,
2013-11-26 21:27:00,42.4,26.1,29.88,ESE,116,0.0,0.0,52,0.00,,---,0.00,VWS V14.01,2013-11-27 05:27:00,
2013-11-26 21:31:00,42.4,26.1,29.88,ESE,116,0.0,0.0,52,0.00,,---,0.00,VWS V14.01,2013-11-27 05:31:00,
2013-11-26 21:37:00,42.3,25.9,29.88,ESE,116,0.0,0.0,52,0.00,,---,0.00,VWS V14.01,2013-11-27 05:37:00,
2013-11-26 21:44:00,42.3,25.9,29.85,ESE,116,0.0,0.0,52,0.00,,---,0.00,VWS V14.01,2013-11-27 05:44:00,
2013-11-26 21:49:00,42.3,25.9,29.85,ESE,116,0.0,0.0,52,0.00,,---,0.00,VWS V14.01,2013-11-27 05:49:00,
2013-11-26 21:55:00,42.3,25.9,29.85,ESE,116,0.0,0.0,52,0.00,,---,0.00,VWS V14.01,2013-11-27 05:55:00,
2013-11-26 22:01:00,42.3,25.9,29.85,ESE,116,0.0,0.0,52,0.00,,---,0.00,VWS V14.01,2013-11-27 06:01:00,
2013-11-26 22:08:00,42.1,25.3,29.85,ESE,116,0.0,0.0,51,0.00,,---,0.00,VWS V14.01,2013-11-27 06:08:00,
2013-11-26 22:13:00,41.9,25.1,29.85,ESE,116,0.0,0.0,51,0.00,,---,0.00,VWS V14.01,2013-11-27 06:13:00,
2013-11-26 22:20:00,42.1,25.7,29.85,ESE,116,0.0,0.0,52,0.00,,---,0.00,VWS V14.01,2013-11-27 06:20:00,
2013-11-26 22:25:00,41.9,25.1,29.85,ESE,116,0.0,0.0,51,0.00,,---,0.00,VWS V14.01,2013-11-27 06:25:00,
2013-11-26 22:31:00,41.5,24.8,29.85,ESE,116,0.0,0.0,51,0.00,,---,0.00,VWS V14.01,2013-11-27 06:31:00,
2013-11-26 22:37:00,41.5,24.8,29.85,ESE,116,0.0,0.0,51,0.00,,---,0.00,VWS V14.01,2013-11-27 06:37:00,
2013-11-26 22:44:00,41.4,24.6,29.85,ESE,116,0.0,0.0,51,0.00,,---,0.00,VWS V14.01,2013-11-27 06:44:00,
2013-11-26 22:50:00,41.4,24.6,29.85,ESE,116,0.0,0.0,51,0.00,,---,0.00,VWS V14.01,2013-11-27 06:50:00,
2013-11-26 22:56:00,41.5,25.2,29.85,ESE,116,0.0,0.0,52,0.00,,---,0.00,VWS V14.01,2013-11-27 06:56:00,
2013-11-26 23:02:00,41.5,25.2,29.85,ESE,116,0.0,0.0,52,0.00,,---,0.00,VWS V14.01,2013-11-27 07:02:00,
2013-11-26 23:08:00,41.7,25.9,29.85,ESE,116,0.0,0.0,53,0.00,,---,0.00,VWS V14.01,2013-11-27 07:08:00,
2013-11-26 23:14:00,41.7,25.9,29.85,ESE,116,0.0,0.0,53,0.00,,---,0.00,VWS V14.01,2013-11-27 07:14:00,
2013-11-26 23:20:00,41.7,25.9,29.85,ESE,116,0.0,0.0,53,0.00,,---,0.00,VWS V14.01,2013-11-27 07:20:00,
2013-11-26 23:26:00,41.5,25.2,29.85,ESE,116,0.0,0.0,52,0.00,,---,0.00,VWS V14.01,2013-11-27 07:26:00,
2013-11-26 23:32:00,41.5,25.2,29.85,ESE,116,0.0,0.0,52,0.00,,---,0.00,VWS V14.01,2013-11-27 07:32:00,
2013-11-26 23:38:00,41.5,25.2,29.85,ESE,116,0.0,0.0,52,0.00,,---,0.00,VWS V14.01,2013-11-27 07:38:00,
2013-11-26 23:44:00,41.5,24.8,29.85,ESE,116,0.0,0.0,51,0.00,,---,0.00,VWS V14.01,2013-11-27 07:44:00,
2013-11-26 23:50:00,41.5,25.2,29.85,ESE,116,0.0,0.0,52,0.00,,---,0.00,VWS V14.01,2013-11-27 07:50:00,
2013-11-26 23:56:00,41.5,25.2,29.85,ESE,116,0.0,0.0,52,0.00,,---,0.00,VWS V14.01,2013-11-27 07:56:00,